createdAt,value
2022-12-03T00:00:40.363Z,63.72
2022-12-03T00:03:07.197Z,62.35
2022-12-03T00:05:34.048Z,64.07
2022-12-03T00:08:03.276Z,63.25
2022-12-03T00:10:30.116Z,61.60
2022-12-03T00:12:56.760Z,62.17
2022-12-03T00:15:24.519Z,60.78
2022-12-03T00:17:51.297Z,63.38
2022-12-03T00:20:20.994Z,62.03
2022-12-03T00:22:48.079Z,62.22
2022-12-03T00:25:15.002Z,63.03
2022-12-03T00:27:42.005Z,63.08
2022-12-03T00:30:10.238Z,61.08
2022-12-03T00:32:37.230Z,62.42
2022-12-03T00:35:04.441Z,61.38
2022-12-03T00:37:31.154Z,63.28
2022-12-03T00:39:57.847Z,61.20
2022-12-03T00:42:24.507Z,63.17
2022-12-03T00:44:51.447Z,62.92
2022-12-03T00:47:18.348Z,63.03
2022-12-03T00:49:44.965Z,63.42
2022-12-03T00:52:11.629Z,62.60
2022-12-03T00:54:38.464Z,62.22
2022-12-03T00:57:05.136Z,63.53
2022-12-03T00:59:31.893Z,62.40
2022-12-03T01:01:58.677Z,62.95
2022-12-03T01:04:25.474Z,63.75
2022-12-03T01:06:52.181Z,61.88
2022-12-03T01:09:18.892Z,64.03
2022-12-03T01:11:45.596Z,61.95
2022-12-03T01:14:15.769Z,65.53
2022-12-03T01:16:42.979Z,67.38
2022-12-03T01:19:10.825Z,65.35
2022-12-03T01:21:37.812Z,65.13
2022-12-03T01:24:05.215Z,65.65
2022-12-03T01:26:31.874Z,65.25
2022-12-03T01:28:58.580Z,65.53
2022-12-03T01:31:25.382Z,67.07
2022-12-03T01:33:52.107Z,65.75
2022-12-03T01:36:18.938Z,66.38
2022-12-03T01:38:46.055Z,67.32
2022-12-03T01:41:12.817Z,66.85
2022-12-03T01:43:39.764Z,66.50
2022-12-03T01:46:06.713Z,66.15
2022-12-03T01:48:37.693Z,68.07
2022-12-03T01:51:04.847Z,67.53
2022-12-03T01:53:31.559Z,66.57
2022-12-03T01:55:58.250Z,66.32
2022-12-03T01:58:27.015Z,67.35
2022-12-03T02:00:53.828Z,64.97
2022-12-03T02:03:26.060Z,67.00
2022-12-03T02:05:52.817Z,64.70
2022-12-03T02:08:30.530Z,65.28
2022-12-03T02:11:20.869Z,67.45
2022-12-03T02:13:51.877Z,66.30
2022-12-03T02:16:18.804Z,64.03
2022-12-03T02:18:45.991Z,65.00
2022-12-03T02:21:31.199Z,65.07
2022-12-03T02:24:19.002Z,64.22
2022-12-03T02:26:45.884Z,65.30
2022-12-03T02:29:12.777Z,62.92
2022-12-03T02:31:39.500Z,63.60
2022-12-03T02:34:11.050Z,62.40
2022-12-03T02:36:38.924Z,64.18
2022-12-03T02:39:05.921Z,63.50
2022-12-03T02:41:32.836Z,61.92
2022-12-03T02:43:59.563Z,61.85
2022-12-03T02:46:26.381Z,61.88
2022-12-03T02:48:53.275Z,62.15
2022-12-03T02:51:20.000Z,61.00
2022-12-03T02:53:49.049Z,63.45
2022-12-03T02:56:20.637Z,63.08
2022-12-03T02:58:50.362Z,61.17
2022-12-03T03:01:17.540Z,59.65
2022-12-03T03:03:46.745Z,61.75
2022-12-03T03:06:15.687Z,62.85
2022-12-03T03:08:43.143Z,63.25
2022-12-03T03:11:09.905Z,63.47
2022-12-03T03:13:37.536Z,63.90
2022-12-03T03:16:05.975Z,62.65
2022-12-03T03:18:34.048Z,64.57
2022-12-03T03:21:00.857Z,64.30
2022-12-03T03:23:27.894Z,64.90
2022-12-03T03:26:12.228Z,65.43
2022-12-03T03:28:44.725Z,65.63
2022-12-03T03:31:13.916Z,62.67
2022-12-03T03:33:43.325Z,63.58
2022-12-03T03:36:10.557Z,64.53
2022-12-03T03:38:39.072Z,64.65
2022-12-03T03:41:07.124Z,63.55
2022-12-03T03:43:35.473Z,63.38
2022-12-03T03:46:04.845Z,65.40
2022-12-03T03:48:32.301Z,62.65
2022-12-03T03:50:59.011Z,64.18
2022-12-03T03:53:26.149Z,64.13
2022-12-03T03:55:53.116Z,64.05
2022-12-03T03:58:19.779Z,62.42
2022-12-03T04:00:47.313Z,64.13
2022-12-03T04:03:13.997Z,63.92
2022-12-03T04:05:40.917Z,63.35
2022-12-03T04:08:07.619Z,62.15
2022-12-03T04:10:34.483Z,63.05
2022-12-03T04:13:01.438Z,63.28
2022-12-03T04:15:28.199Z,63.47
2022-12-03T04:17:55.542Z,65.07
2022-12-03T04:20:22.501Z,64.53
2022-12-03T04:22:49.154Z,64.15
2022-12-03T04:25:15.906Z,64.18
2022-12-03T04:27:42.747Z,65.32
2022-12-03T04:30:09.897Z,64.65
2022-12-03T04:32:36.548Z,64.15
2022-12-03T04:35:03.440Z,65.43
2022-12-03T04:37:30.124Z,63.65
2022-12-03T04:39:56.793Z,62.25
2022-12-03T04:42:23.430Z,62.70
2022-12-03T04:44:50.537Z,62.92
2022-12-03T04:47:19.668Z,61.38
2022-12-03T04:49:48.623Z,63.72
2022-12-03T04:52:18.020Z,62.08
2022-12-03T04:54:44.825Z,63.08
2022-12-03T04:57:12.489Z,63.08
2022-12-03T04:59:39.987Z,62.83
2022-12-03T05:02:07.578Z,62.90
2022-12-03T05:04:34.323Z,62.70
2022-12-03T05:07:00.997Z,64.03
2022-12-03T05:09:27.652Z,64.80
2022-12-03T05:11:54.336Z,64.50
2022-12-03T05:14:21.464Z,65.30
2022-12-03T05:16:48.361Z,65.88
2022-12-03T05:19:15.052Z,66.43
2022-12-03T05:21:41.732Z,67.18
2022-12-03T05:24:08.501Z,66.65
2022-12-03T05:26:35.196Z,67.85
2022-12-03T05:29:02.073Z,69.13
2022-12-03T05:31:31.684Z,67.28
2022-12-03T05:33:58.427Z,68.32
2022-12-03T05:36:25.093Z,69.55
2022-12-03T05:38:51.750Z,70.22
2022-12-03T05:41:18.456Z,69.45
2022-12-03T05:43:45.134Z,71.95
2022-12-03T05:46:11.804Z,68.30
2022-12-03T05:48:38.544Z,68.95
2022-12-03T05:51:05.250Z,71.45
2022-12-03T05:53:31.899Z,71.95
2022-12-03T05:55:58.529Z,71.07
2022-12-03T05:58:25.246Z,70.15
2022-12-03T06:00:51.897Z,73.85
2022-12-03T06:03:18.759Z,71.40
2022-12-03T06:05:45.556Z,76.40
2022-12-03T06:08:12.314Z,74.82
2022-12-03T06:10:39.035Z,75.80
2022-12-03T06:13:05.730Z,76.50
2022-12-03T06:15:32.473Z,73.40
2022-12-03T06:17:59.162Z,75.40
2022-12-03T06:20:25.915Z,75.20
2022-12-03T06:22:52.608Z,74.13
2022-12-03T06:25:19.316Z,75.97
2022-12-03T06:27:45.977Z,74.82
2022-12-03T06:30:13.771Z,74.88
2022-12-03T06:32:40.708Z,76.05
2022-12-03T06:35:07.844Z,77.75
2022-12-03T06:37:34.480Z,76.95
2022-12-03T06:40:01.224Z,75.68
2022-12-03T06:42:27.910Z,74.13
2022-12-03T06:44:54.868Z,73.97
2022-12-03T06:47:21.875Z,77.85
2022-12-03T06:49:50.739Z,78.03
2022-12-03T06:52:17.590Z,76.57
2022-12-03T06:54:44.274Z,78.43
2022-12-03T06:57:11.279Z,79.10
2022-12-03T06:59:38.285Z,80.57
2022-12-03T07:02:05.459Z,78.28
2022-12-03T07:04:32.234Z,80.30
2022-12-03T07:07:03.083Z,81.32
2022-12-03T07:09:29.855Z,80.85
2022-12-03T07:11:56.796Z,84.15
2022-12-03T07:14:23.523Z,79.80
2022-12-03T07:16:50.414Z,81.88
2022-12-03T07:19:17.301Z,79.82
2022-12-03T07:21:44.886Z,80.45
2022-12-03T07:24:11.759Z,81.15
2022-12-03T07:26:38.997Z,82.90
2022-12-03T07:29:05.882Z,79.00
2022-12-03T07:31:32.762Z,80.40
2022-12-03T07:33:59.511Z,80.68
2022-12-03T07:36:26.253Z,82.15
2022-12-03T07:38:52.890Z,80.32
2022-12-03T07:41:19.640Z,80.97
2022-12-03T07:43:46.309Z,81.82
2022-12-03T07:46:13.095Z,80.97
2022-12-03T07:48:39.907Z,80.75
2022-12-03T07:51:06.766Z,81.13
2022-12-03T07:53:33.891Z,80.88
2022-12-03T07:56:00.554Z,80.43
2022-12-03T07:58:27.316Z,77.93
2022-12-03T08:00:54.111Z,76.20
2022-12-03T08:03:20.845Z,77.53
2022-12-03T08:05:48.490Z,77.25
2022-12-03T08:08:16.766Z,80.13
2022-12-03T08:10:43.791Z,80.00
2022-12-03T08:13:16.170Z,77.43
2022-12-03T08:15:43.535Z,77.45
2022-12-03T08:18:21.144Z,81.22
2022-12-03T08:20:50.701Z,79.55
2022-12-03T08:23:22.123Z,91.95
2022-12-03T08:25:50.219Z,76.70
2022-12-03T08:28:25.181Z,77.72
2022-12-03T08:31:10.379Z,77.30
2022-12-03T08:33:37.810Z,76.53
2022-12-03T08:36:31.267Z,78.78
2022-12-03T08:39:11.223Z,80.68
2022-12-03T08:41:38.081Z,78.35
2022-12-03T08:44:29.381Z,81.00
2022-12-03T08:47:02.197Z,81.28
2022-12-03T08:49:28.867Z,81.28
2022-12-03T08:52:00.430Z,80.78
2022-12-03T08:54:27.958Z,80.80
2022-12-03T08:56:55.114Z,80.35
2022-12-03T08:59:29.175Z,79.63
2022-12-03T09:01:58.139Z,77.65
2022-12-03T09:04:30.629Z,79.97
2022-12-03T09:06:57.948Z,78.60
2022-12-03T09:09:24.886Z,81.10
2022-12-03T09:11:52.146Z,78.70
2022-12-03T09:14:19.184Z,76.90
2022-12-03T09:16:46.037Z,79.65
2022-12-03T09:19:12.784Z,81.97
2022-12-03T09:21:39.466Z,78.65
2022-12-03T09:24:06.516Z,81.25
2022-12-03T09:26:33.249Z,78.00
2022-12-03T09:28:59.905Z,78.80
2022-12-03T09:31:26.630Z,76.50
2022-12-03T09:33:53.447Z,78.05
2022-12-03T09:36:23.107Z,78.63
2022-12-03T09:38:49.766Z,79.20
2022-12-03T09:41:16.478Z,83.63
2022-12-03T09:44:03.243Z,77.85
2022-12-03T09:46:30.910Z,83.38
2022-12-03T09:48:57.990Z,77.15
2022-12-03T09:51:31.820Z,78.28
2022-12-03T09:54:00.176Z,75.25
2022-12-03T09:56:28.440Z,78.13
2022-12-03T09:58:57.696Z,77.35
2022-12-03T10:01:29.898Z,77.05
2022-12-03T10:03:57.418Z,78.15
2022-12-03T10:06:24.865Z,76.22
2022-12-03T10:08:54.595Z,77.20
2022-12-03T10:11:24.625Z,78.53
2022-12-03T10:13:52.867Z,75.82
2022-12-03T10:16:23.058Z,78.53
2022-12-03T10:18:53.366Z,75.45
2022-12-03T10:21:37.915Z,73.85
2022-12-03T10:24:16.846Z,75.22
2022-12-03T10:26:50.864Z,77.53
2022-12-03T10:29:32.928Z,75.93
2022-12-03T10:32:11.018Z,77.78
2022-12-03T10:34:40.611Z,77.53
2022-12-03T10:37:20.734Z,76.13
2022-12-03T10:40:01.193Z,75.90
2022-12-03T10:42:33.129Z,76.60
2022-12-03T10:45:38.612Z,76.13
2022-12-03T10:48:23.735Z,75.35
2022-12-03T10:51:05.401Z,78.97
2022-12-03T10:53:34.979Z,78.07
2022-12-03T10:56:05.151Z,74.45
2022-12-03T10:58:36.037Z,72.55
2022-12-03T11:01:07.154Z,73.78
2022-12-03T11:03:38.710Z,75.93
2022-12-03T11:06:19.477Z,72.88
2022-12-03T11:08:57.115Z,70.50
2022-12-03T11:11:29.234Z,73.53
2022-12-03T11:13:56.927Z,74.47
2022-12-03T11:16:42.153Z,81.53
2022-12-03T11:19:18.958Z,81.80
2022-12-03T11:22:25.828Z,75.55
2022-12-03T11:25:35.051Z,75.45
2022-12-03T11:28:22.032Z,69.93
2022-12-03T11:30:48.716Z,73.80
2022-12-03T11:33:24.073Z,72.18
2022-12-03T11:36:05.543Z,72.93
2022-12-03T11:38:37.951Z,72.72
2022-12-03T11:41:34.184Z,71.90
2022-12-03T11:44:04.497Z,75.43
2022-12-03T11:46:37.048Z,72.10
2022-12-03T11:49:23.100Z,72.97
2022-12-03T11:51:50.028Z,73.72
2022-12-03T11:54:19.125Z,73.20
2022-12-03T11:56:47.623Z,71.82
2022-12-03T11:59:14.976Z,69.72
2022-12-03T12:01:44.722Z,71.18
2022-12-03T12:04:36.517Z,72.43
2022-12-03T12:07:03.679Z,73.57
2022-12-03T12:09:49.310Z,70.35
2022-12-03T12:12:48.965Z,71.53
2022-12-03T12:15:35.021Z,72.45
2022-12-03T12:18:33.831Z,70.18
2022-12-03T12:21:46.577Z,70.38
2022-12-03T12:24:38.460Z,71.75
2022-12-03T12:27:08.394Z,70.18
2022-12-03T12:29:36.464Z,69.57
2022-12-03T12:32:22.514Z,71.95
2022-12-03T12:37:21.800Z,69.35
2022-12-03T12:39:48.824Z,71.40
2022-12-03T12:42:28.023Z,70.32
2022-12-03T12:44:57.824Z,70.40
2022-12-03T12:47:25.086Z,69.80
2022-12-03T12:49:52.127Z,72.80
2022-12-03T12:52:18.843Z,68.78
2022-12-03T12:54:45.594Z,72.55
2022-12-03T12:57:22.338Z,71.75
2022-12-03T12:59:50.020Z,73.63
2022-12-03T13:02:54.317Z,71.70
2022-12-03T13:05:24.167Z,73.13
2022-12-03T13:07:53.761Z,71.97
2022-12-03T13:10:36.865Z,73.00
2022-12-03T13:13:18.758Z,72.72
2022-12-03T13:15:51.676Z,70.80
2022-12-03T13:18:29.524Z,71.50
2022-12-03T13:20:56.249Z,71.88
2022-12-03T13:23:30.339Z,77.13
2022-12-03T13:26:09.329Z,72.50
2022-12-03T13:28:45.312Z,71.50
2022-12-03T13:31:40.521Z,72.18
2022-12-03T13:34:22.134Z,118.45
2022-12-03T13:36:57.524Z,76.40
2022-12-03T13:39:34.542Z,71.13
2022-12-03T13:42:35.425Z,70.38
2022-12-03T13:45:19.565Z,73.57
2022-12-03T13:47:48.669Z,70.90
2022-12-03T13:50:37.861Z,72.45
2022-12-03T13:53:13.485Z,70.07
2022-12-03T13:58:11.654Z,70.75
2022-12-03T14:00:38.630Z,67.80
2022-12-03T14:03:05.855Z,69.50
2022-12-03T14:05:32.691Z,72.00
2022-12-03T14:07:59.509Z,71.80
2022-12-03T14:10:41.671Z,70.10
2022-12-03T14:13:08.595Z,70.25
2022-12-03T14:15:35.214Z,68.03
2022-12-03T14:18:01.857Z,70.07
2022-12-03T14:20:28.761Z,71.72
2022-12-03T14:22:59.258Z,69.38
2022-12-03T14:25:26.484Z,69.10
2022-12-03T14:27:53.264Z,67.70
2022-12-03T14:30:20.019Z,65.75
2022-12-03T14:32:46.670Z,61.85
2022-12-03T14:35:13.494Z,62.05
2022-12-03T14:37:40.227Z,63.97
2022-12-03T14:40:07.676Z,63.88
2022-12-03T14:42:34.796Z,62.13
2022-12-03T14:45:01.475Z,59.92
2022-12-03T14:47:28.183Z,61.72
2022-12-03T14:49:54.935Z,62.72
2022-12-03T14:52:21.740Z,57.72
2022-12-03T14:54:48.438Z,59.55
2022-12-03T14:57:15.505Z,59.47
2022-12-03T14:59:43.822Z,58.47
2022-12-03T15:02:11.968Z,62.00
2022-12-03T15:04:40.732Z,59.42
2022-12-03T15:07:08.329Z,58.97
2022-12-03T15:09:35.377Z,61.15
2022-12-03T15:12:02.124Z,57.88
2022-12-03T15:14:28.905Z,60.83
2022-12-03T15:16:55.810Z,61.38
2022-12-03T15:19:28.187Z,59.47
2022-12-03T15:21:54.827Z,64.20
2022-12-03T15:24:21.654Z,61.65
2022-12-03T15:26:48.496Z,61.60
2022-12-03T15:29:18.559Z,61.75
2022-12-03T15:31:45.349Z,61.95
2022-12-03T15:34:14.944Z,62.10
2022-12-03T15:36:46.917Z,61.63
2022-12-03T15:39:13.638Z,61.17
2022-12-03T15:41:40.355Z,62.58
2022-12-03T15:44:08.183Z,65.80
2022-12-03T15:46:34.902Z,63.22
2022-12-03T15:49:01.576Z,62.35
2022-12-03T15:51:30.444Z,61.17
2022-12-03T15:53:57.095Z,62.55
2022-12-03T15:56:24.122Z,62.60
2022-12-03T15:58:50.777Z,62.75
2022-12-03T16:01:17.562Z,62.58
2022-12-03T16:03:44.378Z,64.30
2022-12-03T16:06:11.035Z,62.83
2022-12-03T16:08:37.934Z,65.00
2022-12-03T16:11:04.698Z,61.58
2022-12-03T16:13:31.642Z,65.70
2022-12-03T16:15:58.448Z,64.45
2022-12-03T16:18:25.177Z,67.60
2022-12-03T16:20:51.867Z,64.70
2022-12-03T16:23:18.631Z,65.57
2022-12-03T16:25:45.362Z,64.50
2022-12-03T16:28:11.994Z,64.22
2022-12-03T16:30:38.719Z,62.00
2022-12-03T16:33:05.431Z,62.67
2022-12-03T16:35:32.200Z,64.03
2022-12-03T16:37:58.966Z,64.03
2022-12-03T16:40:25.823Z,63.70
2022-12-03T16:42:52.566Z,62.15
2022-12-03T16:45:19.299Z,63.97
2022-12-03T16:47:45.987Z,64.15
2022-12-03T16:50:21.847Z,65.43
2022-12-03T16:52:55.031Z,66.47
2022-12-03T16:55:24.865Z,66.10
2022-12-03T16:57:51.571Z,65.20
2022-12-03T17:00:18.589Z,66.22
2022-12-03T17:02:45.408Z,64.18
2022-12-03T17:05:12.214Z,67.03
2022-12-03T17:07:39.347Z,68.45
2022-12-03T17:10:06.644Z,66.00
2022-12-03T17:13:07.156Z,67.55
2022-12-03T17:15:20.121Z,65.35
2022-12-03T17:17:46.834Z,65.82
2022-12-03T17:20:13.773Z,65.93
2022-12-03T17:22:41.511Z,64.75
2022-12-03T17:25:08.828Z,64.43
2022-12-03T17:27:36.450Z,65.88
2022-12-03T17:30:07.087Z,64.95
2022-12-03T17:32:34.208Z,64.78
2022-12-03T17:35:00.920Z,66.03
2022-12-03T17:37:27.618Z,67.50
2022-12-03T17:39:54.571Z,66.03
2022-12-03T17:42:21.577Z,65.30
2022-12-03T17:44:48.275Z,65.50
2022-12-03T17:47:15.069Z,68.60
2022-12-03T17:49:41.797Z,77.15
2022-12-03T17:52:08.458Z,66.35
2022-12-03T17:54:55.553Z,66.93
2022-12-03T17:57:21.893Z,67.60
2022-12-03T17:59:48.563Z,65.28
2022-12-03T18:02:15.298Z,66.13
2022-12-03T18:04:42.035Z,65.07
2022-12-03T18:07:08.702Z,67.20
2022-12-03T18:09:35.357Z,66.75
2022-12-03T18:12:02.043Z,66.97
2022-12-03T18:14:28.732Z,68.75
2022-12-03T18:16:55.391Z,67.80
2022-12-03T18:19:22.267Z,68.72
2022-12-03T18:21:49.199Z,66.95
2022-12-03T18:24:16.166Z,68.32
2022-12-03T18:26:42.862Z,67.03
2022-12-03T18:29:09.527Z,70.20
2022-12-03T18:31:36.205Z,67.75
2022-12-03T18:34:03.001Z,67.05
2022-12-03T18:36:34.571Z,71.70
2022-12-03T18:39:01.454Z,71.60
2022-12-03T18:41:28.537Z,69.40
2022-12-03T18:43:55.425Z,68.85
2022-12-03T18:46:51.865Z,70.85
2022-12-03T18:49:09.991Z,73.80
2022-12-03T18:51:37.187Z,72.03
2022-12-03T18:54:04.354Z,73.75
2022-12-03T18:56:31.007Z,70.63
2022-12-03T18:58:57.671Z,71.57
2022-12-03T19:01:24.504Z,72.15
2022-12-03T19:03:53.893Z,72.85
2022-12-03T19:06:21.252Z,72.53
2022-12-03T19:08:48.529Z,72.25
2022-12-03T19:11:15.829Z,71.88
2022-12-03T19:13:42.762Z,74.68
2022-12-03T19:16:10.871Z,72.70
2022-12-03T19:18:38.195Z,73.25
2022-12-03T19:21:09.951Z,75.53
2022-12-03T19:23:37.478Z,75.82
2022-12-03T19:26:06.869Z,74.18
2022-12-03T19:28:34.768Z,73.07
2022-12-03T19:31:10.908Z,75.03
2022-12-03T19:33:37.624Z,74.80
2022-12-03T19:36:06.382Z,75.95
2022-12-03T19:38:33.972Z,76.22
2022-12-03T19:41:06.948Z,77.15
2022-12-03T19:43:35.806Z,76.05
2022-12-03T19:46:07.793Z,73.38
2022-12-03T19:48:35.788Z,77.60
2022-12-03T19:51:26.660Z,78.43
2022-12-03T19:53:49.851Z,80.97
2022-12-03T19:56:19.136Z,75.90
2022-12-03T19:58:46.973Z,75.63
2022-12-03T20:01:15.295Z,77.63
2022-12-03T20:03:44.255Z,74.88
2022-12-03T20:06:12.449Z,79.32
2022-12-03T20:08:39.555Z,79.65
2022-12-03T20:11:15.544Z,75.35
2022-12-03T20:13:43.299Z,79.35
2022-12-03T20:16:12.808Z,77.97
2022-12-03T20:18:40.548Z,78.35
2022-12-03T20:21:09.112Z,80.00
2022-12-03T20:23:35.989Z,76.45
2022-12-03T20:26:07.698Z,78.97
2022-12-03T20:28:34.370Z,76.93
2022-12-03T20:31:06.569Z,80.13
2022-12-03T20:33:33.319Z,82.93
2022-12-03T20:36:00.056Z,80.60
2022-12-03T20:38:26.966Z,81.03
2022-12-03T20:40:53.949Z,80.57
2022-12-03T20:43:20.717Z,81.50
2022-12-03T20:45:47.428Z,79.63
2022-12-03T20:48:14.191Z,81.60
2022-12-03T20:50:41.223Z,82.50
2022-12-03T20:53:24.336Z,82.35
2022-12-03T20:55:56.601Z,84.88
2022-12-03T20:58:23.334Z,82.00
2022-12-03T21:00:50.490Z,82.60
2022-12-03T21:03:17.343Z,86.90
2022-12-03T21:05:44.066Z,81.50
2022-12-03T21:08:13.430Z,82.20
2022-12-03T21:10:41.100Z,82.22
2022-12-03T21:13:07.782Z,83.50
2022-12-03T21:15:34.420Z,81.18
2022-12-03T21:18:01.157Z,81.90
2022-12-03T21:20:30.558Z,81.00
2022-12-03T21:22:57.199Z,81.93
2022-12-03T21:25:23.990Z,83.13
2022-12-03T21:27:50.648Z,81.13
2022-12-03T21:30:22.604Z,83.05
2022-12-03T21:32:49.263Z,82.05
2022-12-03T21:35:16.170Z,83.63
2022-12-03T21:37:42.862Z,84.90
2022-12-03T21:40:10.039Z,85.15
2022-12-03T21:42:37.433Z,83.07
2022-12-03T21:45:05.246Z,82.55
2022-12-03T21:47:37.042Z,84.05
2022-12-03T21:50:07.046Z,82.32
2022-12-03T21:52:34.994Z,84.07
2022-12-03T21:55:01.744Z,85.28
2022-12-03T21:57:28.430Z,84.63
2022-12-03T21:59:58.269Z,83.70
2022-12-03T22:02:25.005Z,82.63
2022-12-03T22:04:51.787Z,83.70
2022-12-03T22:07:18.496Z,84.18
2022-12-03T22:09:45.177Z,83.25
2022-12-03T22:12:11.845Z,86.00
2022-12-03T22:14:38.533Z,86.97
2022-12-03T22:17:05.151Z,87.35
2022-12-03T22:19:31.993Z,87.03
2022-12-03T22:21:58.780Z,89.68
2022-12-03T22:24:25.408Z,88.57
2022-12-03T22:26:52.232Z,88.00
2022-12-03T22:29:19.050Z,87.78
2022-12-03T22:31:45.736Z,88.47
2022-12-03T22:34:12.531Z,89.43
2022-12-03T22:36:39.315Z,87.47
2022-12-03T22:39:06.065Z,87.90
2022-12-03T22:41:32.747Z,90.78
2022-12-03T22:43:59.468Z,89.53
2022-12-03T22:46:26.199Z,90.97
2022-12-03T22:48:52.969Z,92.40
2022-12-03T22:51:22.346Z,91.55
2022-12-03T22:53:54.760Z,92.60
2022-12-03T22:56:21.545Z,88.20
2022-12-03T22:58:48.833Z,92.60
2022-12-03T23:01:29.970Z,89.28
2022-12-03T23:03:57.302Z,88.85
2022-12-03T23:06:24.609Z,90.85
2022-12-03T23:08:51.972Z,88.70
2022-12-03T23:11:19.052Z,89.47
2022-12-03T23:13:46.185Z,90.63
2022-12-03T23:16:24.706Z,89.82
2022-12-03T23:18:51.476Z,89.45
2022-12-03T23:21:29.344Z,89.22
2022-12-03T23:23:58.479Z,87.72
2022-12-03T23:26:25.319Z,89.00
2022-12-03T23:28:52.031Z,87.88
2022-12-03T23:31:27.851Z,91.60
2022-12-03T23:33:55.596Z,90.22
2022-12-03T23:36:23.940Z,91.05
2022-12-03T23:38:50.657Z,89.57
2022-12-03T23:41:20.479Z,92.05
2022-12-03T23:43:47.750Z,92.97
2022-12-03T23:46:22.898Z,93.03
2022-12-03T23:48:49.817Z,90.95
2022-12-03T23:51:20.134Z,91.05
2022-12-03T23:53:47.741Z,92.60
2022-12-03T23:56:17.597Z,91.18
2022-12-03T23:58:44.875Z,92.13
